Ashburton, United Kingdom
Current Conditions -  °F | °C
As of 1:20 AM on Friday 31 Oct 2014 (Local Time) from EGTE Reporting Station
Haze Haze  
Wind Chill: 59°   Ceiling: 800
Heat Index: 59°   Visibility: 2.5mi
Dew Point: 59°   Wind: 9mph
Humidity: 100%   Direction: 170°S
Pressure: 30"   Gusts: NA
Location:  50.52°N, 3.76°W
Report Text: EGTE 310120Z 17008KT 4000 BR FEW005 BKN008 15/15 Q1016
Loading
Personal Weather Stations






























Interactive Weather Map
Tropical Storm Tracking
New forecast layout! Learn more

10-Day Weather Forecast

Advertisements
Track Severe Weather on mobile